MET'MAP v2.0
soon released !

Expected late october,
this new version will be
more efficient, smarter,
and hosted on a brand new
server x3 powerfull...
...and still free !


Not compatible ?
Try the mobile version !

LOG IN : | Subscribe | Disclaimer | Who is Orbifly ? |
ICAO code :

TAF - LFMV Avignon Caumont - 27 Feb 2020 13:14 UTC
Data Sources :     NOAA   


- Airport Elevation : 124 ft
- IATA code : AVN
- No reported NOTAMs.


LFMV - Avignon Caumont

Latest METAR recorded : 2015/08/11 08:00 LFMV 110800Z AUTO 36005KT 320V050 CAVOK 25/17 Q1014
TAF TAF LFMV
Valid from the 27 at 09:00 until the 28 at 09:00 UTC


270800Z 2709/2809 14007KT 9999 BKN075
TEMPO 2709/2710 -RA BKN040
TEMPO 2710/2713 3000 -RA BR OVC010
PROB40
TEMPO 2713/2716 VRB05KT 3000 BR BKN005
BECMG 2717/2719 VRB03KT 5000 BR NSC
BECMG 2719/2721 34007KT
PROB40
TEMPO 2720/2722 1500 BR OVC003
BECMG 2722/2724 34012KT CAVOK
BECMG 2803/2805 33018KT

Source NOAA
ATIS : +33 4 90 84 32 84


MET'MAP, your aeronautical weather chart ! - Copyright ORBIFLY December 2007

Programming & Development : Alexandra Zaïnal
Co-Developer : Marc-Olivier Méhu
Technical & hardware support : Manuel Goepfert
Concept & Financing : Baudouin d'Aumeries